Terminal Aerodrome Forecast
Issued by NWS

Home | Current Version | Previous Version | Text Only | Print | Product List | Glossary On
Versions: 1 2 3 4 5 6 7 8 9 10 11 12 13 14 15 16 17 18
000
FTUS45 KABQ 051100 RRA
TAFLVS
TAF
KLVS 051150Z 0512/0612 01006KT P6SM OVC015
     FM051600 20010KT P6SM SCT015 BKN040
     FM051900 23016G26KT P6SM VCTS SCT040CB BKN100
      TEMPO 0520/0524 VRB25G35KT 5SM TSRA OVC020CB
     FM060200 22013KT P6SM VCSH SCT025 OVC050
      TEMPO 0608/0612 4SM BR OVC015=

USA.gov is the U.S. government's official web portal to all federal, state and local government web resources and services.